Portada
METAR-TAF:

METAR-TAF

Aeroports :

Savannakhet, Laos

latitud: 16-33-24N, longitud: 104-45-34E, altitud: 155 m

Observació

L'informe es va fer fa 1 hora i 37 minuts, a les 10:00 UTC
Vent 4 kt del Sud-Oest
Temperatura 34°C
Humitat 36%
Pressió 1009 hPa
Visibilitat: 8000 m

METAR: VLSK 241000Z 22004KT 8000 NSC 34/17 Q1009 NOSIG

Hora: 18:37 (11:37 UTC)

Pronòstic

L'informe es va fer fa 6 hores i 37 minuts, a les 05:00 UTC
Pronòstic vàlid del 24 a les 06 UTC al 25 a les 06 UTC
Vent 4 kt del Sud-Est
Visibilitat: 8000 m
Escasses núvols a una alçada de 2000 ft
Núvols disperses a una alçada de 10000 ft

TAF: VLSK 240500Z 2406/2506 14004KT 8000 FEW020 SCT100

Observacions i pronòstics meteorològics de més de 4000 aeroports (METAR i TAF).

Les estacions disponibles són els punts grocs i vermells al mapa.

Posi el ratolí al punt desitjat per veure el nom de l'estació.

Feu clic per veure les observacions i els pronòstics meteorològics.

Per canviar el mapa: feu clic els botons verds amb una creu de color negre per apropar; al botó verd amb un guió per allunyar la imatge; o en les fletxes verdes per a mapes adjacents.


METAR-TAF: